Time;durP1;ratioP1;P1;durP2;ratioP2;P2;SDS_P1;SDS_P2;PMS_P1;PMS_P2;Temp;Humidity;BMP_temperature;BMP_pressure;BME280_temperature;BME280_humidity;BME280_pressure;Samples;Min_cycle;Max_cycle;Signal;HPM_P1;HPM_P2
2022/07/04 00:00:17;;;;;;;1.22;0.98;;;23.10;49.40;;;;;;930745;151;27433;-73
2022/07/04 00:02:44;;;;;;;0.62;0.62;;;23.00;49.50;;;;;;930668;151;27385;-71
2022/07/04 00:05:11;;;;;;;0.62;0.62;;;23.00;49.50;;;;;;930628;151;27448;-71
2022/07/04 00:07:40;;;;;;;1.77;1.00;;;23.00;49.60;;;;;;930622;151;27323;-71
2022/07/04 00:10:07;;;;;;;2.83;0.78;;;23.00;49.60;;;;;;931167;151;27316;-72
2022/07/04 00:12:33;;;;;;;1.20;0.80;;;22.90;49.70;;;;;;930744;151;27451;-71
2022/07/04 00:15:00;;;;;;;1.10;0.80;;;22.90;49.80;;;;;;930051;151;27412;-71
2022/07/04 00:17:27;;;;;;;3.00;0.70;;;22.80;49.90;;;;;;931041;151;27392;-71
2022/07/04 00:19:54;;;;;;;0.65;0.65;;;22.80;50.00;;;;;;931091;150;27363;-71
2022/07/04 00:22:20;;;;;;;0.55;0.47;;;22.80;50.10;;;;;;930610;151;27367;-71
2022/07/04 00:24:47;;;;;;;1.12;0.75;;;22.70;50.30;;;;;;930111;151;27424;-74
2022/07/04 00:27:13;;;;;;;0.80;0.72;;;22.70;50.20;;;;;;930796;151;27391;-71
2022/07/04 00:29:40;;;;;;;2.47;0.90;;;22.70;50.30;;;;;;930558;151;27410;-71
2022/07/04 00:32:06;;;;;;;1.57;0.90;;;22.70;50.40;;;;;;930275;151;27489;-71
2022/07/04 00:34:33;;;;;;;0.70;0.70;;;22.60;50.50;;;;;;930729;151;27452;-71
2022/07/04 00:37:00;;;;;;;1.10;0.75;;;22.60;50.60;;;;;;930618;151;27822;-71
2022/07/04 00:39:26;;;;;;;1.10;0.75;;;22.60;50.60;;;;;;931255;151;27335;-71
2022/07/04 00:41:53;;;;;;;0.68;0.60;;;22.50;50.70;;;;;;930988;151;27328;-73
2022/07/04 00:44:20;;;;;;;1.10;1.00;;;22.50;50.90;;;;;;930793;151;27409;-71
2022/07/04 00:46:46;;;;;;;0.62;0.57;;;22.50;51.00;;;;;;931315;151;27480;-74
2022/07/04 00:49:13;;;;;;;0.90;0.90;;;22.40;51.00;;;;;;930623;151;27375;-71
2022/07/04 00:51:39;;;;;;;2.25;0.88;;;22.40;51.10;;;;;;930904;151;27445;-71
2022/07/04 00:54:06;;;;;;;1.32;0.75;;;22.40;51.20;;;;;;930839;151;27335;-71
2022/07/04 00:56:32;;;;;;;1.77;0.80;;;22.40;51.30;;;;;;929683;151;27878;-72
2022/07/04 00:58:59;;;;;;;0.90;0.75;;;22.30;51.40;;;;;;930914;151;27362;-73
2022/07/04 01:01:26;;;;;;;3.92;1.10;;;22.30;51.50;;;;;;930483;151;27382;-71
2022/07/04 01:03:52;;;;;;;0.78;0.78;;;22.30;51.50;;;;;;930514;151;27352;-71
2022/07/04 01:06:19;;;;;;;1.82;1.10;;;22.30;51.60;;;;;;930720;151;27363;-72
2022/07/04 01:08:45;;;;;;;0.75;0.75;;;22.20;51.60;;;;;;931462;151;27482;-71
2022/07/04 01:11:12;;;;;;;1.05;0.98;;;22.20;51.80;;;;;;931195;151;27467;-71
2022/07/04 01:13:40;;;;;;;2.40;1.05;;;22.20;51.80;;;;;;930945;151;27356;-71
2022/07/04 01:16:05;;;;;;;0.85;0.82;;;22.10;51.90;;;;;;930938;151;27395;-72
2022/07/04 01:18:32;;;;;;;0.80;0.80;;;22.10;52.00;;;;;;930543;151;27324;-72
2022/07/04 01:20:58;;;;;;;0.90;0.88;;;22.10;52.10;;;;;;930876;151;27402;-74
2022/07/04 01:23:25;;;;;;;1.52;0.95;;;22.10;52.10;;;;;;930548;151;27399;-71
2022/07/04 01:25:52;;;;;;;1.65;0.88;;;22.20;52.30;;;;;;929917;151;27362;-71
2022/07/04 01:28:21;;;;;;;2.25;1.00;;;22.20;52.30;;;;;;930252;151;27349;-71
2022/07/04 01:30:47;;;;;;;0.70;0.70;;;22.10;52.30;;;;;;932137;150;27394;-73
2022/07/04 01:33:14;;;;;;;0.85;0.72;;;22.20;52.40;;;;;;933030;150;27382;-74
2022/07/04 01:35:40;;;;;;;0.95;0.70;;;22.20;52.40;;;;;;935793;150;27810;-71
2022/07/04 01:38:07;;;;;;;1.37;0.72;;;22.20;52.40;;;;;;920994;151;27318;-71
2022/07/04 01:40:34;;;;;;;0.80;0.80;;;22.20;52.40;;;;;;920850;153;27447;-74
2022/07/04 01:43:00;;;;;;;0.88;0.72;;;22.20;52.40;;;;;;920753;151;27472;-71
2022/07/04 01:45:27;;;;;;;0.90;0.90;;;22.20;52.50;;;;;;918283;152;28532;-71
2022/07/04 01:47:54;;;;;;;0.98;0.98;;;22.20;52.60;;;;;;934059;149;27344;-71
2022/07/04 01:50:20;;;;;;;0.80;0.60;;;22.10;52.50;;;;;;917715;152;27778;-71
2022/07/04 01:52:47;;;;;;;0.80;0.80;;;22.10;52.60;;;;;;934141;148;27389;-71
2022/07/04 01:55:13;;;;;;;0.85;0.80;;;22.00;52.60;;;;;;933745;149;27417;-74
2022/07/04 01:57:40;;;;;;;0.95;0.90;;;22.00;52.70;;;;;;917922;152;27378;-71
2022/07/04 02:02:51;;;;;;;3.70;1.00;;;21.90;52.90;;;;;;933221;149;27408;-71
2022/07/04 02:05:18;;;;;;;0.62;0.60;;;21.80;52.90;;;;;;932041;149;27338;-71
2022/07/04 02:07:44;;;;;;;1.45;1.05;;;21.70;53.10;;;;;;916847;152;27455;-71
2022/07/04 02:10:11;;;;;;;1.22;0.98;;;21.70;53.20;;;;;;930963;150;27367;-73
2022/07/04 02:15:23;;;;;;;1.40;0.68;;;21.50;53.30;;;;;;931100;151;27543;-71
2022/07/04 02:17:49;;;;;;;1.07;0.88;;;21.50;53.40;;;;;;931806;151;27888;-71
2022/07/04 02:20:16;;;;;;;2.62;1.10;;;21.40;53.60;;;;;;930247;151;27416;-70
2022/07/04 02:22:43;;;;;;;1.12;0.95;;;21.40;53.80;;;;;;917191;151;27351;-72
2022/07/04 02:25:11;;;;;;;1.70;0.88;;;21.30;53.90;;;;;;917503;152;27390;-71
2022/07/04 02:27:36;;;;;;;1.12;1.10;;;21.20;54.00;;;;;;933947;149;27356;-71
2022/07/04 02:30:02;;;;;;;1.17;0.88;;;21.20;54.20;;;;;;917328;152;27369;-71
2022/07/04 02:32:29;;;;;;;1.10;1.00;;;21.10;54.40;;;;;;934291;150;27503;-72
2022/07/04 02:34:55;;;;;;;1.00;1.00;;;21.10;54.40;;;;;;937275;150;27319;-71
2022/07/04 02:37:22;;;;;;;1.17;1.07;;;21.00;54.60;;;;;;913237;154;27367;-74
2022/07/04 02:39:49;;;;;;;0.93;0.93;;;21.00;54.60;;;;;;938630;150;27439;-71
2022/07/04 02:42:15;;;;;;;0.90;0.90;;;20.90;54.80;;;;;;922262;152;27401;-74
2022/07/04 02:44:43;;;;;;;1.50;0.93;;;20.80;54.80;;;;;;921574;152;27337;-74
2022/07/04 02:47:08;;;;;;;1.07;0.72;;;20.80;54.90;;;;;;929779;151;27348;-73
2022/07/04 02:49:35;;;;;;;1.92;0.70;;;20.70;55.10;;;;;;923700;152;27352;-74
2022/07/04 02:52:02;;;;;;;2.08;0.95;;;20.60;55.10;;;;;;923890;152;27432;-74
2022/07/04 02:54:28;;;;;;;1.30;1.22;;;20.60;55.30;;;;;;924468;152;27360;-73
2022/07/04 02:56:55;;;;;;;1.20;1.10;;;20.50;55.40;;;;;;924806;152;27406;-74
2022/07/04 02:59:21;;;;;;;2.35;1.10;;;20.50;55.60;;;;;;924600;152;27486;-74
2022/07/04 03:01:48;;;;;;;1.25;1.15;;;20.50;55.70;;;;;;924491;152;27392;-72
2022/07/04 03:04:15;;;;;;;1.20;0.90;;;20.40;55.70;;;;;;924939;152;27437;-71
2022/07/04 03:06:42;;;;;;;1.37;1.20;;;20.30;55.80;;;;;;924066;152;27344;-71
2022/07/04 03:09:08;;;;;;;1.02;1.00;;;20.30;56.10;;;;;;924479;152;27374;-73
2022/07/04 03:11:34;;;;;;;1.55;1.12;;;20.20;56.20;;;;;;924471;152;27360;-74
2022/07/04 03:14:01;;;;;;;1.95;1.57;;;20.20;56.50;;;;;;924433;152;27347;-71
2022/07/04 03:16:28;;;;;;;1.90;0.88;;;20.20;56.40;;;;;;923659;152;27343;-71
2022/07/04 03:18:54;;;;;;;0.93;0.93;;;20.10;56.50;;;;;;924744;152;27450;-71
2022/07/04 03:21:21;;;;;;;2.72;1.20;;;20.10;56.60;;;;;;924465;152;27371;-71
2022/07/04 03:23:57;;;;;;;1.22;1.12;;;20.00;56.70;;;;;;924873;152;27329;-71
2022/07/04 03:26:14;;;;;;;1.20;1.13;;;20.00;57.00;;;;;;922956;152;27397;-71
2022/07/04 03:28:40;;;;;;;1.90;1.20;;;20.00;57.00;;;;;;924611;152;27927;-71
2022/07/04 03:31:07;;;;;;;1.62;1.02;;;19.90;57.10;;;;;;923811;152;27398;-71
2022/07/04 03:33:34;;;;;;;1.55;1.45;;;19.90;57.20;;;;;;925664;152;27373;-71
2022/07/04 03:36:00;;;;;;;0.88;0.88;;;19.80;57.30;;;;;;926161;151;27375;-71
2022/07/04 03:38:27;;;;;;;1.95;1.45;;;19.80;57.40;;;;;;926995;151;27807;-71
2022/07/04 03:40:53;;;;;;;1.20;1.10;;;19.80;57.60;;;;;;926927;152;27434;-70
2022/07/04 03:43:20;;;;;;;1.30;0.98;;;19.70;57.60;;;;;;926401;152;27312;-71
2022/07/04 03:45:47;;;;;;;1.07;1.00;;;19.70;57.70;;;;;;926566;152;27473;-71
2022/07/04 03:48:13;;;;;;;1.15;1.05;;;19.70;57.80;;;;;;926860;151;27375;-73
2022/07/04 03:50:40;;;;;;;1.40;1.30;;;19.60;57.90;;;;;;926693;152;27469;-71
2022/07/04 03:53:06;;;;;;;1.25;1.00;;;19.60;58.10;;;;;;926194;151;27366;-71
2022/07/04 03:55:33;;;;;;;1.42;1.00;;;19.60;58.10;;;;;;926470;152;27425;-71
2022/07/04 03:58:00;;;;;;;1.40;1.30;;;19.50;58.30;;;;;;926688;151;27448;-71
2022/07/04 04:00:26;;;;;;;1.67;1.15;;;19.50;58.40;;;;;;925760;151;27428;-71
2022/07/04 04:02:53;;;;;;;1.90;1.03;;;19.50;58.60;;;;;;925600;151;27387;-71
2022/07/04 04:05:30;;;;;;;2.10;1.15;;;19.50;58.60;;;;;;925782;152;27399;-71
2022/07/04 04:07:55;;;;;;;1.35;1.25;;;19.50;58.80;;;;;;926353;152;27406;-71
2022/07/04 04:10:21;;;;;;;1.27;1.20;;;19.50;58.70;;;;;;927075;152;27340;-70
2022/07/04 04:12:48;;;;;;;1.40;1.30;;;19.50;58.80;;;;;;926301;152;27446;-72
2022/07/04 04:15:14;;;;;;;1.55;1.30;;;19.50;58.90;;;;;;925964;151;27448;-71
2022/07/04 04:17:41;;;;;;;0.95;0.95;;;19.50;59.00;;;;;;926429;151;27370;-71
2022/07/04 04:20:08;;;;;;;2.67;1.60;;;19.60;59.10;;;;;;926940;151;27328;-71
2022/07/04 04:22:34;;;;;;;2.08;1.10;;;19.60;59.10;;;;;;925895;152;27826;-72
2022/07/04 04:25:01;;;;;;;1.00;1.00;;;19.60;59.20;;;;;;926602;152;27375;-73
2022/07/04 04:27:28;;;;;;;1.02;1.00;;;19.70;59.50;;;;;;926392;152;27473;-70
2022/07/04 04:29:54;;;;;;;2.22;1.12;;;19.70;59.30;;;;;;926504;151;27803;-71
2022/07/04 04:32:21;;;;;;;2.27;1.42;;;19.70;59.50;;;;;;924655;152;27377;-71
2022/07/04 04:34:47;;;;;;;1.12;1.10;;;19.80;59.40;;;;;;924520;152;27331;-71
2022/07/04 04:37:14;;;;;;;2.42;1.30;;;19.90;59.40;;;;;;923707;152;27344;-73
2022/07/04 04:39:40;;;;;;;1.45;1.17;;;20.00;59.40;;;;;;937933;150;27443;-71
2022/07/04 04:42:07;;;;;;;1.22;1.12;;;20.00;59.40;;;;;;938125;150;27378;-71
2022/07/04 04:44:34;;;;;;;1.62;1.05;;;20.10;59.40;;;;;;938077;150;27406;-73
2022/07/04 04:47:00;;;;;;;1.17;1.02;;;20.20;59.40;;;;;;934123;151;27464;-71
2022/07/04 04:49:27;;;;;;;1.72;1.15;;;20.30;59.40;;;;;;915581;152;27792;-72
2022/07/04 04:51:53;;;;;;;0.90;0.85;;;20.40;59.40;;;;;;922500;152;27393;-71
2022/07/04 04:54:20;;;;;;;1.20;0.90;;;20.50;59.50;;;;;;922071;152;27374;-71
2022/07/04 04:56:47;;;;;;;2.20;1.45;;;20.70;60.40;;;;;;912165;154;27412;-71
2022/07/04 04:59:13;;;;;;;1.50;1.00;;;20.90;60.30;;;;;;938571;150;27399;-74
2022/07/04 05:01:40;;;;;;;1.72;1.22;;;21.30;60.90;;;;;;933991;151;27980;-71
2022/07/04 05:04:06;;;;;;;1.90;1.15;;;21.70;61.30;;;;;;913232;154;27410;-72
2022/07/04 05:06:33;;;;;;;1.70;1.10;;;22.30;61.30;;;;;;938058;150;27347;-71
2022/07/04 05:09:00;;;;;;;1.00;1.00;;;22.90;61.10;;;;;;934196;151;27383;-71
2022/07/04 05:11:26;;;;;;;1.27;1.10;;;23.60;60.30;;;;;;921729;153;27446;-73
2022/07/04 05:13:53;;;;;;;0.80;0.80;;;24.40;59.60;;;;;;938310;150;27351;-73
2022/07/04 05:16:19;;;;;;;2.15;1.25;;;25.20;58.90;;;;;;911657;154;27846;-72
2022/07/04 05:18:46;;;;;;;1.77;1.00;;;26.00;58.10;;;;;;937183;150;27354;-72
2022/07/04 05:21:12;;;;;;;1.10;0.82;;;26.70;57.20;;;;;;933877;149;27338;-71
2022/07/04 05:23:39;;;;;;;2.00;1.15;;;27.40;56.30;;;;;;912834;154;27467;-71
2022/07/04 05:26:06;;;;;;;2.83;1.42;;;28.10;55.40;;;;;;933800;150;27678;-72
2022/07/04 05:28:32;;;;;;;1.15;0.93;;;28.90;54.30;;;;;;930910;151;27324;-72
2022/07/04 05:30:59;;;;;;;2.08;1.10;;;29.50;53.20;;;;;;924943;152;27347;-72
2022/07/04 05:33:25;;;;;;;1.82;1.00;;;30.10;52.00;;;;;;923476;152;27318;-72
2022/07/04 05:35:52;;;;;;;0.80;0.78;;;30.50;51.10;;;;;;924261;152;27392;-75
2022/07/04 05:38:19;;;;;;;2.33;1.22;;;31.00;50.10;;;;;;915056;153;27396;-72
2022/07/04 05:40:45;;;;;;;1.07;0.98;;;31.50;49.60;;;;;;922665;152;27413;-72
2022/07/04 05:43:12;;;;;;;1.95;0.90;;;31.80;48.80;;;;;;915739;152;27430;-72
2022/07/04 05:45:38;;;;;;;1.25;0.95;;;32.20;48.20;;;;;;922658;152;28016;-73
2022/07/04 05:48:05;;;;;;;2.02;0.90;;;32.60;47.50;;;;;;915619;152;27411;-73
2022/07/04 05:50:32;;;;;;;1.20;0.95;;;33.00;46.80;;;;;;923030;152;27361;-72
2022/07/04 05:52:58;;;;;;;0.88;0.82;;;33.30;45.80;;;;;;915680;154;27683;-73
2022/07/04 05:55:25;;;;;;;1.50;1.15;;;33.60;45.20;;;;;;938564;150;27404;-71
2022/07/04 05:57:53;;;;;;;1.72;1.12;;;33.80;44.90;;;;;;911807;154;27398;-72
2022/07/04 06:00:18;;;;;;;1.67;0.80;;;34.00;44.40;;;;;;938198;150;27376;-72
2022/07/04 06:02:44;;;;;;;3.65;0.80;;;34.20;44.20;;;;;;938389;150;27348;-75
2022/07/04 06:05:11;;;;;;;1.00;0.90;;;34.50;43.80;;;;;;913554;154;27372;-73
2022/07/04 06:07:38;;;;;;;2.62;1.02;;;34.80;43.50;;;;;;938298;150;27411;-72
2022/07/04 06:10:04;;;;;;;1.15;0.78;;;35.10;42.90;;;;;;913929;154;27369;-73
2022/07/04 06:12:31;;;;;;;1.92;1.10;;;35.30;42.40;;;;;;938510;150;27457;-75
2022/07/04 06:14:58;;;;;;;1.90;1.20;;;35.50;41.20;;;;;;912871;154;27377;-72
2022/07/04 06:17:24;;;;;;;1.00;0.90;;;35.70;41.00;;;;;;937178;150;27317;-72
2022/07/04 06:19:51;;;;;;;2.60;0.80;;;35.90;41.00;;;;;;934319;150;27411;-72
2022/07/04 06:22:17;;;;;;;1.00;0.90;;;36.10;40.70;;;;;;913373;154;26245;-72
2022/07/04 06:24:44;;;;;;;0.88;0.88;;;36.30;40.40;;;;;;938216;150;27400;-75
2022/07/04 06:27:10;;;;;;;1.45;0.93;;;36.50;40.10;;;;;;913856;154;26282;-72
2022/07/04 06:29:37;;;;;;;2.58;1.00;;;36.70;39.70;;;;;;911975;154;26357;-73
2022/07/04 06:32:04;;;;;;;1.35;1.10;;;36.90;39.40;;;;;;938210;150;26335;-73
2022/07/04 06:37:15;;;;;;;0.98;0.75;;;37.40;38.70;;;;;;938328;150;27450;-72
2022/07/04 06:39:41;;;;;;;1.42;0.88;;;37.70;38.40;;;;;;912578;154;26345;-72
2022/07/04 06:42:08;;;;;;;1.30;0.90;;;37.90;38.00;;;;;;938640;150;27327;-73
2022/07/04 06:44:35;;;;;;;1.22;0.85;;;38.10;37.70;;;;;;938792;150;27295;-73
2022/07/04 06:47:01;;;;;;;2.15;0.88;;;38.30;37.30;;;;;;934437;150;26333;-74
2022/07/04 06:49:28;;;;;;;1.00;0.75;;;38.50;37.00;;;;;;937589;150;27839;-75
2022/07/04 06:51:54;;;;;;;0.93;0.72;;;38.80;36.90;;;;;;938656;150;27507;-73
2022/07/04 06:54:21;;;;;;;1.37;0.82;;;39.10;36.30;;;;;;912757;154;28077;-73
2022/07/04 06:56:48;;;;;;;0.88;0.65;;;39.40;36.00;;;;;;934255;150;26342;-73
2022/07/04 06:59:14;;;;;;;2.95;0.70;;;39.60;35.40;;;;;;913543;154;26773;-74
2022/07/04 07:01:41;;;;;;;1.02;0.70;;;39.90;35.10;;;;;;938372;150;26268;-75
2022/07/04 07:04:07;;;;;;;0.72;0.72;;;40.10;34.60;;;;;;912471;154;26687;-74
2022/07/04 07:06:34;;;;;;;1.22;0.90;;;40.40;34.40;;;;;;938416;150;26242;-73
2022/07/04 07:09:01;;;;;;;0.95;0.65;;;40.60;33.60;;;;;;911844;154;27408;-73
2022/07/04 07:11:27;;;;;;;1.30;0.50;;;40.80;33.20;;;;;;938316;150;26320;-73
2022/07/04 07:13:54;;;;;;;1.30;0.62;;;40.90;32.50;;;;;;912533;154;26277;-73
2022/07/04 07:16:20;;;;;;;0.60;0.60;;;41.10;32.10;;;;;;938197;150;26206;-73
2022/07/04 07:18:49;;;;;;;1.40;0.80;;;41.40;31.40;;;;;;938560;150;26217;-73
2022/07/04 07:21:13;;;;;;;0.57;0.45;;;41.50;31.00;;;;;;913623;154;26270;-74
2022/07/04 07:23:40;;;;;;;0.60;0.50;;;41.60;30.70;;;;;;938169;150;26237;-76
2022/07/04 07:26:07;;;;;;;0.95;0.72;;;41.60;30.00;;;;;;912061;154;27887;-73
2022/07/04 07:28:33;;;;;;;1.20;0.62;;;41.70;29.60;;;;;;938206;150;26367;-74
2022/07/04 07:31:00;;;;;;;1.12;0.60;;;41.70;29.60;;;;;;911685;154;26265;-73
2022/07/04 07:33:26;;;;;;;1.37;0.57;;;41.70;29.50;;;;;;938651;149;26222;-73
2022/07/04 07:35:53;;;;;;;0.70;0.47;;;41.80;29.60;;;;;;950594;148;26349;-73
2022/07/04 07:38:20;;;;;;;0.95;0.68;;;41.80;29.60;;;;;;927004;152;26294;-75
2022/07/04 07:40:46;;;;;;;1.75;0.60;;;41.90;29.40;;;;;;946230;149;26263;-74
2022/07/04 07:43:13;;;;;;;0.47;0.47;;;42.20;29.40;;;;;;927168;152;26249;-73
2022/07/04 07:45:39;;;;;;;0.42;0.42;;;42.40;29.20;;;;;;947566;148;26348;-74
2022/07/04 07:48:06;;;;;;;0.37;0.37;;;42.70;29.00;;;;;;950037;148;26321;-72
2022/07/04 07:50:33;;;;;;;0.82;0.62;;;43.00;28.70;;;;;;929880;151;27858;-74
2022/07/04 07:52:59;;;;;;;1.55;0.65;;;43.30;28.80;;;;;;947475;148;26273;-73
2022/07/04 07:55:26;;;;;;;1.05;0.60;;;43.50;28.20;;;;;;929674;151;26270;-73
2022/07/04 07:57:53;;;;;;;1.17;0.80;;;43.80;27.90;;;;;;949626;148;26322;-73
2022/07/04 08:00:19;;;;;;;0.82;0.50;;;44.00;27.60;;;;;;928686;151;26262;-73
2022/07/04 08:05:30;;;;;;;1.95;0.57;;;44.30;27.20;;;;;;928893;151;28646;-73
2022/07/04 08:07:57;;;;;;;1.22;0.70;;;44.40;27.20;;;;;;927697;152;26347;-73
2022/07/04 08:10:23;;;;;;;0.62;0.55;;;44.60;27.00;;;;;;947332;148;26193;-73
2022/07/04 08:12:50;;;;;;;2.02;0.80;;;44.80;26.70;;;;;;927386;152;26383;-73
2022/07/04 08:15:16;;;;;;;0.50;0.50;;;45.00;26.50;;;;;;946695;148;26345;-73
2022/07/04 08:17:44;;;;;;;0.47;0.40;;;45.10;26.20;;;;;;931063;150;26288;-72
2022/07/04 08:20:10;;;;;;;1.70;0.80;;;45.10;25.90;;;;;;949295;148;26264;-72
2022/07/04 08:22:36;;;;;;;1.72;0.60;;;45.30;26.00;;;;;;950176;148;26233;-73
2022/07/04 08:25:03;;;;;;;1.72;0.70;;;45.50;25.90;;;;;;928604;151;26391;-74
2022/07/04 08:27:29;;;;;;;0.57;0.40;;;45.60;25.60;;;;;;949248;148;26337;-76
2022/07/04 08:29:56;;;;;;;1.15;0.40;;;45.80;25.40;;;;;;929766;151;26285;-74
2022/07/04 08:32:23;;;;;;;1.50;0.57;;;45.90;25.30;;;;;;946568;149;26776;-73
2022/07/04 08:34:49;;;;;;;0.50;0.23;;;46.10;24.90;;;;;;930151;151;26305;-73
2022/07/04 08:37:16;;;;;;;1.37;0.60;;;46.30;24.90;;;;;;950663;148;26672;-76
2022/07/04 08:39:42;;;;;;;0.60;0.35;;;46.30;24.60;;;;;;932464;151;26375;-73
2022/07/04 08:42:12;;;;;;;1.27;0.85;;;46.20;24.60;;;;;;950694;148;26268;-74
2022/07/04 08:44:38;;;;;;;1.10;0.50;;;46.30;24.60;;;;;;950628;147;26226;-73
2022/07/04 08:47:05;;;;;;;1.60;1.17;;;46.30;24.30;;;;;;953923;147;26224;-76
2022/07/04 08:49:31;;;;;;;1.90;1.80;;;46.30;24.10;;;;;;933149;151;26231;-76
2022/07/04 08:51:58;;;;;;;3.08;2.00;;;46.30;24.20;;;;;;950698;148;26307;-73
2022/07/04 08:59:55;;;;;;;1.47;1.07;;;45.80;23.90;;;;;;947883;148;26413;-73
2022/07/04 09:02:21;;;;;;;1.55;0.82;;;45.70;24.20;;;;;;948713;148;26333;-73
2022/07/04 09:04:47;;;;;;;1.27;1.10;;;45.60;24.20;;;;;;948769;148;26229;-75
2022/07/04 09:07:14;;;;;;;0.70;0.70;;;45.60;24.30;;;;;;948226;148;26826;-73
2022/07/04 09:09:40;;;;;;;0.57;0.40;;;45.70;24.30;;;;;;948263;148;26216;-73
2022/07/04 09:12:07;;;;;;;0.90;0.70;;;45.80;24.00;;;;;;948862;148;26329;-74
2022/07/04 09:14:33;;;;;;;0.70;0.70;;;45.90;23.90;;;;;;934264;150;26365;-76
2022/07/04 09:17:00;;;;;;;0.93;0.60;;;46.00;23.70;;;;;;933330;151;26378;-73
2022/07/04 09:19:27;;;;;;;2.00;0.47;;;46.00;23.80;;;;;;951526;148;26408;-73
2022/07/04 09:21:53;;;;;;;1.40;0.95;;;46.00;23.90;;;;;;932997;151;26314;-74
2022/07/04 09:24:41;;;;;;;1.90;0.90;;;46.00;23.90;;;;;;951419;148;26329;-74
2022/07/04 09:27:08;;;;;;;1.15;0.90;;;46.00;23.80;;;;;;932088;151;26288;-73
2022/07/04 09:29:35;;;;;;;4.67;0.80;;;46.10;23.90;;;;;;951492;148;26228;-74
2022/07/04 09:32:01;;;;;;;0.65;0.60;;;46.20;24.30;;;;;;932998;150;26896;-73
2022/07/04 09:34:28;;;;;;;0.40;0.40;;;46.30;23.50;;;;;;952526;147;26264;-73
2022/07/04 09:36:56;;;;;;;0.50;0.50;;;46.20;23.50;;;;;;932776;151;26312;-73
2022/07/04 09:39:21;;;;;;;2.22;0.80;;;46.00;23.10;;;;;;951232;148;26353;-74
2022/07/04 09:41:51;;;;;;;1.00;0.70;;;46.00;23.20;;;;;;933286;151;26265;-74
2022/07/04 09:44:17;;;;;;;0.72;0.50;;;45.80;23.20;;;;;;951741;148;26337;-75
2022/07/04 09:46:44;;;;;;;1.47;0.50;;;45.70;23.30;;;;;;933100;151;26393;-74
2022/07/04 09:49:13;;;;;;;0.45;0.40;;;45.60;23.30;;;;;;951124;148;28284;-73
2022/07/04 09:51:42;;;;;;;1.00;0.60;;;45.50;23.00;;;;;;948608;148;26257;-73
2022/07/04 09:54:18;;;;;;;1.32;0.60;;;45.30;23.10;;;;;;948507;148;26287;-74
2022/07/04 09:56:44;;;;;;;0.70;0.40;;;45.10;23.10;;;;;;948797;148;26337;-73
2022/07/04 09:59:11;;;;;;;0.50;0.50;;;44.90;23.40;;;;;;948242;148;26256;-73
2022/07/04 10:01:39;;;;;;;0.72;0.60;;;44.70;23.40;;;;;;948156;148;26252;-73
2022/07/04 10:04:04;;;;;;;1.55;0.35;;;44.50;23.30;;;;;;949239;148;26259;-74
2022/07/04 10:06:33;;;;;;;1.10;0.60;;;44.30;23.30;;;;;;934071;150;26721;-73
2022/07/04 10:09:12;;;;;;;2.05;0.55;;;44.20;23.30;;;;;;950142;148;26293;-73
2022/07/04 10:11:38;;;;;;;1.75;0.80;;;43.90;23.50;;;;;;932415;151;26426;-73
2022/07/04 10:14:08;;;;;;;0.55;0.50;;;43.80;23.60;;;;;;935488;150;26256;-73
2022/07/04 10:16:34;;;;;;;0.82;0.40;;;43.50;23.40;;;;;;951513;148;26326;-73
2022/07/04 10:19:01;;;;;;;0.72;0.70;;;43.10;23.20;;;;;;951351;148;26560;-73
2022/07/04 10:21:27;;;;;;;1.20;0.57;;;42.70;23.40;;;;;;934343;151;27408;-73
2022/07/04 10:23:54;;;;;;;0.82;0.47;;;42.20;23.40;;;;;;934337;150;27441;-74
2022/07/04 10:26:21;;;;;;;1.57;0.68;;;41.70;23.60;;;;;;931759;151;27330;-74
2022/07/04 10:28:51;;;;;;;0.42;0.35;;;41.20;23.80;;;;;;951313;147;26267;-75
2022/07/04 10:31:16;;;;;;;0.72;0.50;;;40.70;24.00;;;;;;949357;148;26307;-73
2022/07/04 10:33:43;;;;;;;1.10;0.50;;;40.20;24.10;;;;;;947000;148;27451;-73
2022/07/04 10:36:15;;;;;;;1.32;0.70;;;39.70;24.20;;;;;;947681;148;26304;-76
2022/07/04 10:38:51;;;;;;;1.65;0.80;;;39.30;24.40;;;;;;930550;151;27481;-72
2022/07/04 10:41:20;;;;;;;1.42;0.50;;;38.80;24.50;;;;;;946063;148;27275;-72
2022/07/04 10:43:53;;;;;;;1.20;0.90;;;38.30;24.80;;;;;;946699;148;27678;-73
2022/07/04 10:46:39;;;;;;;1.15;1.05;;;37.70;24.80;;;;;;928473;151;27526;-74
2022/07/04 10:49:06;;;;;;;1.15;0.93;;;37.10;25.00;;;;;;916179;153;27326;-73
2022/07/04 10:51:45;;;;;;;0.68;0.60;;;36.40;25.50;;;;;;931623;150;27491;-73
2022/07/04 10:54:22;;;;;;;0.68;0.60;;;36.00;25.90;;;;;;946540;148;27549;-75
2022/07/04 10:56:55;;;;;;;0.70;0.50;;;35.50;26.10;;;;;;944763;148;27458;-73
2022/07/04 10:59:27;;;;;;;1.17;1.00;;;35.20;26.50;;;;;;945536;148;27390;-73
2022/07/04 11:02:09;;;;;;;0.90;0.70;;;35.00;26.70;;;;;;925726;153;27300;-72
2022/07/04 11:04:50;;;;;;;1.77;0.62;;;34.70;26.80;;;;;;944454;149;27339;-72
2022/07/04 11:07:35;;;;;;;1.05;0.80;;;34.50;27.10;;;;;;946973;148;27342;-73
2022/07/04 11:10:21;;;;;;;0.68;0.50;;;34.40;27.30;;;;;;926099;152;27342;-73
2022/07/04 11:12:55;;;;;;;1.67;0.80;;;34.30;27.60;;;;;;944797;148;27327;-74
2022/07/04 11:15:25;;;;;;;1.35;0.72;;;34.20;27.80;;;;;;928630;151;27514;-73
2022/07/04 11:17:51;;;;;;;1.72;0.90;;;34.30;28.00;;;;;;945596;148;27324;-72
2022/07/04 11:20:18;;;;;;;1.77;0.80;;;34.30;27.90;;;;;;946797;148;27954;-72
2022/07/04 11:22:45;;;;;;;0.85;0.72;;;34.30;28.10;;;;;;944534;148;27252;-72
2022/07/04 11:25:11;;;;;;;0.90;0.60;;;34.30;28.10;;;;;;945391;150;27326;-73
2022/07/04 11:27:40;;;;;;;2.60;0.80;;;34.20;28.10;;;;;;944450;148;27323;-75
2022/07/04 11:30:08;;;;;;;0.82;0.57;;;34.20;28.10;;;;;;945441;148;27647;-73
2022/07/04 11:32:34;;;;;;;2.15;0.80;;;34.20;28.20;;;;;;945086;148;27326;-72
2022/07/04 11:35:01;;;;;;;1.82;0.80;;;34.20;28.30;;;;;;943449;148;27494;-73
2022/07/04 11:37:27;;;;;;;1.15;0.68;;;34.10;28.20;;;;;;944981;150;27344;-73
2022/07/04 11:45:02;;;;;;;4.25;1.00;;;34.10;28.20;;;;;;945627;148;27291;-74
2022/07/04 11:45:05;;;;;;;1.90;0.85;;;33.90;28.30;;;;;;942779;150;27317;-74
2022/07/04 11:47:32;;;;;;;0.78;0.70;;;33.80;28.30;;;;;;941531;149;27403;-72
2022/07/04 11:49:58;;;;;;;0.70;0.70;;;33.60;28.40;;;;;;924826;153;27696;-73
2022/07/04 11:52:25;;;;;;;1.17;0.70;;;33.40;28.50;;;;;;924252;151;27407;-75
2022/07/04 11:54:52;;;;;;;3.20;0.78;;;33.20;28.70;;;;;;926983;151;27765;-72
2022/07/04 11:57:21;;;;;;;0.80;0.60;;;32.90;28.80;;;;;;926129;151;27375;-72
2022/07/04 11:59:54;;;;;;;4.70;1.00;;;32.70;29.40;;;;;;924457;151;27351;-73
2022/07/04 12:02:21;;;;;;;1.12;0.95;;;32.50;29.00;;;;;;925832;151;27360;-72
2022/07/04 12:04:47;;;;;;;0.93;0.72;;;32.30;29.20;;;;;;925867;151;27451;-74
2022/07/04 12:07:13;;;;;;;2.02;0.62;;;32.10;29.50;;;;;;924375;153;27408;-72
2022/07/04 12:09:40;;;;;;;1.62;0.90;;;31.90;29.70;;;;;;925530;151;27416;-72
2022/07/04 12:12:07;;;;;;;1.20;0.80;;;31.90;29.80;;;;;;927085;151;27409;-72
2022/07/04 12:14:33;;;;;;;1.37;0.80;;;31.80;30.00;;;;;;927978;151;27836;-74
2022/07/04 12:17:18;;;;;;;0.70;0.50;;;31.70;30.10;;;;;;925396;151;27381;-72
2022/07/04 12:19:57;;;;;;;0.45;0.40;;;31.80;30.00;;;;;;927930;151;27736;-75
2022/07/04 12:22:29;;;;;;;0.85;0.70;;;31.80;29.80;;;;;;926527;153;27516;-72
2022/07/04 12:24:55;;;;;;;0.60;0.45;;;31.90;29.70;;;;;;927654;151;27343;-72
2022/07/04 12:27:22;;;;;;;0.80;0.30;;;31.90;29.70;;;;;;925831;153;27354;-73
2022/07/04 12:29:48;;;;;;;1.47;0.45;;;31.90;29.60;;;;;;925841;151;27396;-73
2022/07/04 12:32:15;;;;;;;1.92;0.82;;;31.90;29.70;;;;;;925878;151;27963;-73
2022/07/04 12:34:42;;;;;;;1.65;0.55;;;32.00;29.80;;;;;;926607;151;27461;-72
2022/07/04 12:37:08;;;;;;;1.95;0.70;;;32.00;29.80;;;;;;925746;151;27288;-74
2022/07/04 12:39:37;;;;;;;1.12;0.72;;;32.00;29.80;;;;;;924358;151;27460;-73
2022/07/04 12:42:10;;;;;;;0.40;0.40;;;31.90;29.70;;;;;;924528;153;27487;-74
2022/07/04 12:44:37;;;;;;;0.50;0.50;;;31.90;29.60;;;;;;926268;151;27393;-73
2022/07/04 12:47:04;;;;;;;2.35;0.75;;;31.80;29.60;;;;;;926371;151;27433;-72
2022/07/04 12:49:30;;;;;;;0.40;0.40;;;31.80;29.70;;;;;;933964;150;27468;-72
2022/07/04 12:52:09;;;;;;;0.60;0.60;;;31.70;29.60;;;;;;943587;148;27454;-73
2022/07/04 12:54:35;;;;;;;0.50;0.40;;;31.70;29.60;;;;;;910215;153;27490;-74
2022/07/04 12:57:14;;;;;;;1.47;0.80;;;31.70;29.60;;;;;;930781;151;27456;-72
2022/07/04 12:59:40;;;;;;;0.72;0.40;;;31.60;29.70;;;;;;928489;151;27358;-73
2022/07/04 13:02:07;;;;;;;0.80;0.57;;;31.60;29.90;;;;;;929399;151;27350;-73
2022/07/04 13:04:33;;;;;;;1.07;0.60;;;31.60;30.00;;;;;;928837;151;27413;-72
2022/07/04 13:07:00;;;;;;;0.45;0.40;;;31.60;30.00;;;;;;929092;151;27369;-73